Time;durP1;ratioP1;P1;durP2;ratioP2;P2;SDS_P1;SDS_P2;PMS_P1;PMS_P2;Temp;Humidity;BMP_temperature;BMP_pressure;BME280_temperature;BME280_humidity;BME280_pressure;Samples;Min_cycle;Max_cycle;Signal;HPM_P1;HPM_P2
2023/07/30 00:02:16;;;;;;;9.73;4.78;;;;;;;;;;5039781;28;20775;-60
2023/07/30 00:04:43;;;;;;;6.88;4.20;;;;;;;;;;5038233;28;20485;-58
2023/07/30 00:07:10;;;;;;;8.85;4.57;;;;;;;;;;5041831;28;20895;-60
2023/07/30 00:09:37;;;;;;;7.83;4.33;;;;;;;;;;5038415;28;20458;-60
2023/07/30 00:12:05;;;;;;;6.78;4.45;;;;;;;;;;5040591;28;21114;-59
2023/07/30 00:14:33;;;;;;;10.38;4.40;;;;;;;;;;5039126;28;20449;-60
2023/07/30 00:17:00;;;;;;;6.20;3.87;;;;;;;;;;5040104;28;20431;-58
2023/07/30 00:19:27;;;;;;;7.90;4.10;;;;;;;;;;5039667;28;20464;-58
2023/07/30 00:21:54;;;;;;;7.28;3.88;;;;;;;;;;5039987;28;20422;-60
2023/07/30 00:24:21;;;;;;;10.27;4.55;;;;;;;;;;5041562;28;20493;-59
2023/07/30 00:26:48;;;;;;;11.50;4.40;;;;;;;;;;5042975;28;20793;-60
2023/07/30 00:29:15;;;;;;;4.97;3.53;;;;;;;;;;5041695;28;20421;-60
2023/07/30 00:31:44;;;;;;;7.05;3.72;;;;;;;;;;5035244;28;20476;-60
2023/07/30 00:34:11;;;;;;;9.15;3.75;;;;;;;;;;5040310;28;20968;-61
2023/07/30 00:36:38;;;;;;;12.95;4.05;;;;;;;;;;5040699;28;20488;-59
2023/07/30 00:39:05;;;;;;;9.07;3.75;;;;;;;;;;5041189;28;20419;-60
2023/07/30 00:41:32;;;;;;;9.57;4.03;;;;;;;;;;5043694;28;20425;-60
2023/07/30 00:43:59;;;;;;;7.50;4.00;;;;;;;;;;5040064;28;20982;-59
2023/07/30 00:46:26;;;;;;;7.28;3.72;;;;;;;;;;5040088;28;20915;-57
2023/07/30 00:48:54;;;;;;;10.35;3.90;;;;;;;;;;5038257;28;20465;-59
2023/07/30 00:51:21;;;;;;;11.85;4.35;;;;;;;;;;5039242;28;20421;-58
2023/07/30 00:53:49;;;;;;;10.35;4.07;;;;;;;;;;5040584;28;20439;-59
2023/07/30 00:56:16;;;;;;;8.45;3.80;;;;;;;;;;5043872;28;20417;-60
2023/07/30 00:58:44;;;;;;;9.60;4.32;;;;;;;;;;5037659;28;20417;-59
2023/07/30 01:01:11;;;;;;;10.10;5.15;;;;;;;;;;5041216;28;20535;-59
2023/07/30 01:03:38;;;;;;;13.10;4.70;;;;;;;;;;5033462;28;20425;-58
2023/07/30 01:06:06;;;;;;;9.57;4.40;;;;;;;;;;5030933;28;20422;-56
2023/07/30 01:08:33;;;;;;;11.67;5.40;;;;;;;;;;5030523;28;20872;-59
2023/07/30 01:11:00;;;;;;;8.30;4.65;;;;;;;;;;5036511;28;20421;-59
2023/07/30 01:13:30;;;;;;;11.80;4.53;;;;;;;;;;5037659;28;20481;-59
2023/07/30 01:15:57;;;;;;;9.70;4.70;;;;;;;;;;5037327;28;20456;-59
2023/07/30 01:18:24;;;;;;;16.00;5.38;;;;;;;;;;5038008;28;20421;-60
2023/07/30 01:20:55;;;;;;;11.10;5.10;;;;;;;;;;5040189;28;20425;-60
2023/07/30 01:23:22;;;;;;;10.18;4.72;;;;;;;;;;5041901;28;20499;-60
2023/07/30 01:25:50;;;;;;;10.03;4.90;;;;;;;;;;5049261;28;20934;-60
2023/07/30 01:28:19;;;;;;;12.20;4.43;;;;;;;;;;5045366;28;20454;-59
2023/07/30 01:30:48;;;;;;;10.48;4.70;;;;;;;;;;5043467;28;20459;-58
2023/07/30 01:33:15;;;;;;;9.53;4.77;;;;;;;;;;5045741;28;20462;-60
2023/07/30 01:35:43;;;;;;;9.05;4.65;;;;;;;;;;5047129;28;20420;-59
2023/07/30 01:38:11;;;;;;;10.23;4.72;;;;;;;;;;5044587;28;20423;-58
2023/07/30 01:40:39;;;;;;;10.52;4.50;;;;;;;;;;5045150;28;20574;-59
2023/07/30 01:43:06;;;;;;;13.52;5.05;;;;;;;;;;5045480;28;20414;-57
2023/07/30 01:45:34;;;;;;;12.67;4.67;;;;;;;;;;5044777;28;20561;-60
2023/07/30 01:48:01;;;;;;;12.27;4.18;;;;;;;;;;5045889;28;20509;-58
2023/07/30 01:50:28;;;;;;;7.93;4.40;;;;;;;;;;5045662;28;20418;-59
2023/07/30 01:52:55;;;;;;;8.82;4.22;;;;;;;;;;5046245;28;20425;-59
2023/07/30 01:55:23;;;;;;;9.63;4.15;;;;;;;;;;5047868;28;20879;-60
2023/07/30 01:57:50;;;;;;;9.20;4.50;;;;;;;;;;5044291;28;20459;-59
2023/07/30 02:00:17;;;;;;;14.38;4.72;;;;;;;;;;5046938;28;20459;-58
2023/07/30 02:02:44;;;;;;;8.55;4.35;;;;;;;;;;5044174;28;20476;-59
2023/07/30 02:05:11;;;;;;;10.15;4.65;;;;;;;;;;5046256;28;20425;-59
2023/07/30 02:07:38;;;;;;;10.30;4.60;;;;;;;;;;5044142;28;20481;-60
2023/07/30 02:10:05;;;;;;;12.20;4.25;;;;;;;;;;5045619;28;20790;-59
2023/07/30 02:12:34;;;;;;;10.05;4.43;;;;;;;;;;5044250;28;20826;-58
2023/07/30 02:15:01;;;;;;;13.85;4.28;;;;;;;;;;5042783;28;20415;-59
2023/07/30 02:17:28;;;;;;;9.38;4.60;;;;;;;;;;5046899;28;20462;-59
2023/07/30 02:19:55;;;;;;;9.48;4.43;;;;;;;;;;5043740;28;20423;-59
2023/07/30 02:22:22;;;;;;;12.17;5.07;;;;;;;;;;5047199;28;20420;-59
2023/07/30 02:24:49;;;;;;;10.38;4.47;;;;;;;;;;5047264;28;20488;-59
2023/07/30 02:27:16;;;;;;;13.02;5.10;;;;;;;;;;5045398;28;20424;-59
2023/07/30 02:29:44;;;;;;;10.10;4.70;;;;;;;;;;5044076;28;20422;-58
2023/07/30 02:32:11;;;;;;;13.27;4.82;;;;;;;;;;5047029;28;20461;-60
2023/07/30 02:34:38;;;;;;;11.50;4.90;;;;;;;;;;5042008;28;20468;-58
2023/07/30 02:37:05;;;;;;;11.40;4.80;;;;;;;;;;5042271;28;20787;-59
2023/07/30 02:39:32;;;;;;;10.98;4.90;;;;;;;;;;5040661;28;20461;-60
2023/07/30 02:41:59;;;;;;;9.00;5.00;;;;;;;;;;5039896;28;20430;-60
2023/07/30 02:44:26;;;;;;;9.15;4.50;;;;;;;;;;5042828;28;20980;-59
2023/07/30 02:46:54;;;;;;;12.93;4.90;;;;;;;;;;5040613;28;20418;-60
2023/07/30 02:49:21;;;;;;;8.85;4.30;;;;;;;;;;5041538;28;21006;-60
2023/07/30 02:51:48;;;;;;;9.63;4.57;;;;;;;;;;5038226;28;20420;-61
2023/07/30 02:54:16;;;;;;;13.25;4.45;;;;;;;;;;5044984;28;20854;-58
2023/07/30 02:56:45;;;;;;;10.63;4.80;;;;;;;;;;5043642;28;20595;-60
2023/07/30 02:59:12;;;;;;;7.25;4.28;;;;;;;;;;5041761;28;20529;-59
2023/07/30 03:01:39;;;;;;;11.38;4.60;;;;;;;;;;5041040;28;20472;-60
2023/07/30 03:04:07;;;;;;;10.98;4.80;;;;;;;;;;5041750;28;20435;-59
2023/07/30 03:06:34;;;;;;;11.95;4.70;;;;;;;;;;5041143;28;20427;-60
2023/07/30 03:09:01;;;;;;;13.97;4.83;;;;;;;;;;5040332;28;20512;-58
2023/07/30 03:11:29;;;;;;;12.52;5.20;;;;;;;;;;5036442;28;20423;-59
2023/07/30 03:13:56;;;;;;;10.60;4.60;;;;;;;;;;5033957;28;20473;-60
2023/07/30 03:16:23;;;;;;;9.43;5.13;;;;;;;;;;5034569;28;20839;-59
2023/07/30 03:18:50;;;;;;;11.05;5.10;;;;;;;;;;5036088;28;21068;-60
2023/07/30 03:21:18;;;;;;;11.30;5.10;;;;;;;;;;5037860;28;20426;-59
2023/07/30 03:23:48;;;;;;;12.27;5.20;;;;;;;;;;5041632;28;20472;-59
2023/07/30 03:26:15;;;;;;;9.18;4.40;;;;;;;;;;5043449;28;20465;-58
2023/07/30 03:28:42;;;;;;;9.77;4.88;;;;;;;;;;5039958;28;20420;-59
2023/07/30 03:31:09;;;;;;;8.15;4.70;;;;;;;;;;5043037;28;20470;-59
2023/07/30 03:33:36;;;;;;;8.80;4.75;;;;;;;;;;5039207;28;20474;-58
2023/07/30 03:36:03;;;;;;;8.80;4.32;;;;;;;;;;5042583;28;20821;-59
2023/07/30 03:38:31;;;;;;;12.30;4.50;;;;;;;;;;5039257;28;20424;-59
2023/07/30 03:40:58;;;;;;;8.57;4.50;;;;;;;;;;5041856;28;20426;-59
2023/07/30 03:43:25;;;;;;;11.25;4.15;;;;;;;;;;5040052;28;20895;-60
2023/07/30 03:45:52;;;;;;;11.55;4.60;;;;;;;;;;5040763;28;20489;-58
2023/07/30 03:48:19;;;;;;;13.32;4.38;;;;;;;;;;5034587;28;20488;-59
2023/07/30 03:50:46;;;;;;;10.88;4.63;;;;;;;;;;5038707;28;20430;-58
2023/07/30 03:53:13;;;;;;;10.07;4.28;;;;;;;;;;5043049;28;20554;-58
2023/07/30 03:55:42;;;;;;;10.10;4.30;;;;;;;;;;5041579;28;20410;-60
2023/07/30 03:58:09;;;;;;;9.02;4.55;;;;;;;;;;5041161;28;20460;-58
2023/07/30 04:00:36;;;;;;;12.05;4.32;;;;;;;;;;5039867;28;20423;-58
2023/07/30 04:03:03;;;;;;;11.98;4.13;;;;;;;;;;5036791;28;20431;-60
2023/07/30 04:05:30;;;;;;;7.80;4.03;;;;;;;;;;5041603;28;20425;-58
2023/07/30 04:07:57;;;;;;;11.53;4.40;;;;;;;;;;5039684;28;20792;-58
2023/07/30 04:10:24;;;;;;;12.90;4.55;;;;;;;;;;5041080;28;20425;-60
2023/07/30 04:12:52;;;;;;;12.43;4.60;;;;;;;;;;5039645;28;20461;-60
2023/07/30 04:15:19;;;;;;;13.10;4.93;;;;;;;;;;5041354;28;20933;-57
2023/07/30 04:17:47;;;;;;;11.63;4.50;;;;;;;;;;5039103;28;20422;-60
2023/07/30 04:20:14;;;;;;;13.35;4.88;;;;;;;;;;5038027;28;20417;-60
2023/07/30 04:22:41;;;;;;;11.23;4.20;;;;;;;;;;5036092;28;20844;-60
2023/07/30 04:25:10;;;;;;;9.38;4.65;;;;;;;;;;5043743;28;20432;-56
2023/07/30 04:27:37;;;;;;;12.95;5.07;;;;;;;;;;5039428;28;20482;-57
2023/07/30 04:30:06;;;;;;;10.10;4.15;;;;;;;;;;5038853;28;20430;-57
2023/07/30 04:32:33;;;;;;;11.27;4.30;;;;;;;;;;5037253;28;20973;-59
2023/07/30 04:35:00;;;;;;;10.70;4.20;;;;;;;;;;5029840;28;20531;-60
2023/07/30 04:37:27;;;;;;;11.50;4.38;;;;;;;;;;5033486;28;20425;-56
2023/07/30 04:39:54;;;;;;;15.57;4.60;;;;;;;;;;5038592;28;20963;-60
2023/07/30 04:42:21;;;;;;;10.23;4.10;;;;;;;;;;5034262;28;20418;-60
2023/07/30 04:44:48;;;;;;;13.10;4.60;;;;;;;;;;5039552;28;20486;-58
2023/07/30 04:47:16;;;;;;;12.90;4.57;;;;;;;;;;5036247;28;20474;-59
2023/07/30 04:49:43;;;;;;;9.50;4.20;;;;;;;;;;5032468;28;20451;-58
2023/07/30 04:52:10;;;;;;;10.90;4.30;;;;;;;;;;5034145;28;20514;-60
2023/07/30 04:54:37;;;;;;;8.60;4.25;;;;;;;;;;5036752;28;20429;-58
2023/07/30 04:57:05;;;;;;;10.95;3.83;;;;;;;;;;5031205;28;20469;-59
2023/07/30 04:59:33;;;;;;;9.95;4.90;;;;;;;;;;5032952;28;20422;-58
2023/07/30 05:02:00;;;;;;;12.65;4.30;;;;;;;;;;5035081;28;20425;-60
2023/07/30 05:04:29;;;;;;;10.48;4.15;;;;;;;;;;5037328;28;20874;-56
2023/07/30 05:06:55;;;;;;;10.07;4.07;;;;;;;;;;5036302;28;20423;-58
2023/07/30 05:09:22;;;;;;;12.68;4.32;;;;;;;;;;5040140;28;20425;-60
2023/07/30 05:11:50;;;;;;;8.55;3.65;;;;;;;;;;5037193;28;20420;-60
2023/07/30 05:14:16;;;;;;;10.55;3.92;;;;;;;;;;5034830;28;20423;-60
2023/07/30 05:16:43;;;;;;;13.55;4.32;;;;;;;;;;5036611;28;20467;-60
2023/07/30 05:19:10;;;;;;;13.23;3.78;;;;;;;;;;5034013;28;20419;-58
2023/07/30 05:21:39;;;;;;;11.73;3.80;;;;;;;;;;5036830;28;20837;-59
2023/07/30 05:24:06;;;;;;;11.68;4.00;;;;;;;;;;5040270;28;20458;-58
2023/07/30 05:26:33;;;;;;;10.10;3.80;;;;;;;;;;5041548;28;20436;-60
2023/07/30 05:29:00;;;;;;;12.02;3.80;;;;;;;;;;5038081;28;20943;-60
2023/07/30 05:31:27;;;;;;;13.15;4.05;;;;;;;;;;5040415;28;20432;-60
2023/07/30 05:33:54;;;;;;;11.30;3.70;;;;;;;;;;5037669;28;20417;-60
2023/07/30 05:36:21;;;;;;;13.93;4.22;;;;;;;;;;5035629;28;20405;-58
2023/07/30 05:38:49;;;;;;;10.25;4.20;;;;;;;;;;5037801;28;20426;-60
2023/07/30 05:41:16;;;;;;;12.63;4.18;;;;;;;;;;5041181;28;20417;-60
2023/07/30 05:43:43;;;;;;;11.83;3.53;;;;;;;;;;5037488;28;20799;-58
2023/07/30 05:46:10;;;;;;;12.73;4.15;;;;;;;;;;5040702;28;20429;-59
2023/07/30 05:48:37;;;;;;;12.38;4.25;;;;;;;;;;5031968;28;20794;-60
2023/07/30 05:51:05;;;;;;;12.70;3.78;;;;;;;;;;5037728;28;20498;-60
2023/07/30 05:53:32;;;;;;;10.00;4.00;;;;;;;;;;5038722;28;20895;-59
2023/07/30 05:56:00;;;;;;;15.55;4.18;;;;;;;;;;5042096;28;20461;-60
2023/07/30 05:58:27;;;;;;;12.93;4.10;;;;;;;;;;5038796;28;20527;-58
2023/07/30 06:00:54;;;;;;;10.77;4.20;;;;;;;;;;5039052;28;20427;-59
2023/07/30 06:03:21;;;;;;;11.35;4.40;;;;;;;;;;5038873;28;20421;-59
2023/07/30 06:05:48;;;;;;;14.35;4.32;;;;;;;;;;5036598;28;20427;-59
2023/07/30 06:08:15;;;;;;;13.05;4.22;;;;;;;;;;5033496;28;21057;-59
2023/07/30 06:10:42;;;;;;;9.73;3.93;;;;;;;;;;5031625;28;20423;-59
2023/07/30 06:13:10;;;;;;;10.90;3.60;;;;;;;;;;5037385;28;20422;-60
2023/07/30 06:15:37;;;;;;;10.10;3.78;;;;;;;;;;5040751;28;20486;-59
2023/07/30 06:18:04;;;;;;;12.75;4.00;;;;;;;;;;5038664;28;20449;-60
2023/07/30 06:20:31;;;;;;;13.88;3.90;;;;;;;;;;5041580;28;20466;-60
2023/07/30 06:22:58;;;;;;;11.38;3.60;;;;;;;;;;5036822;28;20909;-60
2023/07/30 06:25:25;;;;;;;11.27;3.70;;;;;;;;;;5044505;28;20482;-59
2023/07/30 06:27:52;;;;;;;9.88;3.10;;;;;;;;;;5041327;28;20902;-59
2023/07/30 06:30:21;;;;;;;10.38;3.42;;;;;;;;;;5045165;28;20754;-60
2023/07/30 06:32:48;;;;;;;12.75;3.45;;;;;;;;;;5041125;28;20430;-59
2023/07/30 06:35:15;;;;;;;9.07;3.03;;;;;;;;;;5042385;28;20828;-60
2023/07/30 06:37:42;;;;;;;10.90;3.10;;;;;;;;;;5041422;28;20478;-59
2023/07/30 06:40:09;;;;;;;11.93;3.50;;;;;;;;;;5041201;28;20426;-59
2023/07/30 06:42:36;;;;;;;14.10;3.42;;;;;;;;;;5043394;28;20771;-60
2023/07/30 06:45:03;;;;;;;13.02;3.15;;;;;;;;;;5040461;28;20426;-58
2023/07/30 06:47:31;;;;;;;10.65;3.13;;;;;;;;;;5041184;28;20413;-60
2023/07/30 06:49:58;;;;;;;10.43;2.90;;;;;;;;;;5040395;28;20413;-60
2023/07/30 06:52:26;;;;;;;8.88;2.80;;;;;;;;;;5043483;28;20417;-58
2023/07/30 06:54:53;;;;;;;10.63;3.00;;;;;;;;;;5041191;28;20429;-60
2023/07/30 06:57:20;;;;;;;9.82;3.30;;;;;;;;;;5032201;28;20423;-59
2023/07/30 06:59:47;;;;;;;9.18;3.35;;;;;;;;;;5042587;28;20424;-59
2023/07/30 07:02:14;;;;;;;9.55;3.15;;;;;;;;;;5035196;28;20488;-59
2023/07/30 07:04:42;;;;;;;12.13;3.22;;;;;;;;;;5033527;28;20422;-62
2023/07/30 07:07:09;;;;;;;9.02;3.08;;;;;;;;;;5037515;28;20435;-62
2023/07/30 07:09:36;;;;;;;11.10;3.25;;;;;;;;;;5038673;28;20785;-61
2023/07/30 07:12:03;;;;;;;11.45;3.13;;;;;;;;;;5036350;28;20426;-59
2023/07/30 07:14:30;;;;;;;9.50;2.97;;;;;;;;;;5038834;28;20473;-59
2023/07/30 07:16:57;;;;;;;10.00;3.10;;;;;;;;;;5037472;28;20493;-62
2023/07/30 07:19:24;;;;;;;9.90;2.80;;;;;;;;;;5039806;28;20441;-59
2023/07/30 07:21:53;;;;;;;11.77;3.30;;;;;;;;;;5038774;28;20409;-60
2023/07/30 07:24:20;;;;;;;12.63;3.15;;;;;;;;;;5044949;28;20462;-61
2023/07/30 07:26:47;;;;;;;12.18;3.25;;;;;;;;;;5042439;28;20435;-58
2023/07/30 07:29:14;;;;;;;10.68;3.20;;;;;;;;;;5040503;28;20859;-60
2023/07/30 07:31:41;;;;;;;9.73;3.15;;;;;;;;;;5039652;28;20482;-60
2023/07/30 07:34:09;;;;;;;9.48;3.05;;;;;;;;;;5040262;28;20465;-61
2023/07/30 07:36:37;;;;;;;8.18;3.05;;;;;;;;;;5043426;28;20798;-61
2023/07/30 07:39:06;;;;;;;11.85;3.08;;;;;;;;;;5047484;28;20427;-59
2023/07/30 07:41:33;;;;;;;12.02;2.80;;;;;;;;;;5045936;28;20425;-59
2023/07/30 07:44:00;;;;;;;9.75;3.40;;;;;;;;;;5044289;28;20539;-58
2023/07/30 07:46:27;;;;;;;12.38;3.33;;;;;;;;;;5042352;28;20452;-59
2023/07/30 07:48:54;;;;;;;12.57;3.40;;;;;;;;;;5043304;28;20415;-58
2023/07/30 07:51:21;;;;;;;10.05;3.50;;;;;;;;;;5043538;28;20504;-61
2023/07/30 07:53:48;;;;;;;11.30;3.40;;;;;;;;;;5041606;28;20421;-60
2023/07/30 07:56:17;;;;;;;8.98;3.38;;;;;;;;;;5050301;28;20421;-59
2023/07/30 07:58:44;;;;;;;13.17;3.47;;;;;;;;;;5043241;28;20442;-60
2023/07/30 08:01:13;;;;;;;13.07;5.22;;;;;;;;;;5039624;28;20417;-60
2023/07/30 08:03:40;;;;;;;11.75;4.20;;;;;;;;;;5036451;28;20486;-62
2023/07/30 08:06:08;;;;;;;9.37;3.50;;;;;;;;;;5041541;28;20486;-60
2023/07/30 08:08:34;;;;;;;10.05;3.58;;;;;;;;;;5039932;28;20456;-59
2023/07/30 08:11:06;;;;;;;8.93;3.53;;;;;;;;;;5039062;28;20916;-59
2023/07/30 08:13:35;;;;;;;12.10;3.97;;;;;;;;;;5041814;28;20801;-59
2023/07/30 08:16:02;;;;;;;10.52;3.40;;;;;;;;;;5038504;28;20766;-59
2023/07/30 08:18:29;;;;;;;11.90;3.45;;;;;;;;;;5042289;28;20423;-59
2023/07/30 08:20:56;;;;;;;10.98;3.20;;;;;;;;;;5042532;28;20480;-57
2023/07/30 08:23:23;;;;;;;8.48;3.38;;;;;;;;;;5045389;28;20899;-59
2023/07/30 08:25:50;;;;;;;12.57;3.47;;;;;;;;;;5037552;28;20497;-58
2023/07/30 08:28:17;;;;;;;11.07;3.43;;;;;;;;;;5034055;28;20415;-58
2023/07/30 08:30:46;;;;;;;11.40;3.50;;;;;;;;;;5041679;28;20481;-58
2023/07/30 08:33:13;;;;;;;8.05;3.35;;;;;;;;;;5033645;28;20485;-59
2023/07/30 08:35:40;;;;;;;9.45;3.40;;;;;;;;;;5039224;28;20493;-59
2023/07/30 08:38:07;;;;;;;9.48;3.17;;;;;;;;;;5038016;28;20548;-58
2023/07/30 08:40:34;;;;;;;14.38;3.85;;;;;;;;;;5039675;28;20417;-59
2023/07/30 08:43:01;;;;;;;12.13;3.30;;;;;;;;;;5040402;28;20763;-58
2023/07/30 08:45:28;;;;;;;11.18;3.67;;;;;;;;;;5039424;28;20481;-58
2023/07/30 08:47:56;;;;;;;13.15;3.97;;;;;;;;;;5038856;28;20426;-60
2023/07/30 08:50:24;;;;;;;9.50;3.63;;;;;;;;;;5039463;28;20477;-60
2023/07/30 08:52:51;;;;;;;10.88;3.58;;;;;;;;;;5042477;28;20417;-59
2023/07/30 08:55:18;;;;;;;10.55;3.63;;;;;;;;;;5039179;28;20459;-58
2023/07/30 08:57:46;;;;;;;12.57;3.85;;;;;;;;;;5039785;28;20907;-58
2023/07/30 09:00:16;;;;;;;10.25;3.55;;;;;;;;;;5036124;28;20422;-65
2023/07/30 09:02:45;;;;;;;11.60;3.50;;;;;;;;;;5043995;28;21081;-65
2023/07/30 09:05:14;;;;;;;10.73;3.53;;;;;;;;;;5044646;28;20412;-65
2023/07/30 09:07:41;;;;;;;9.75;3.15;;;;;;;;;;5041945;28;20448;-64
2023/07/30 09:10:08;;;;;;;10.20;3.33;;;;;;;;;;5038241;28;20426;-63
2023/07/30 09:12:36;;;;;;;11.48;3.20;;;;;;;;;;5032823;28;20431;-63
2023/07/30 09:15:04;;;;;;;10.20;3.35;;;;;;;;;;5034289;28;20427;-57
2023/07/30 09:17:31;;;;;;;10.20;3.53;;;;;;;;;;5034204;28;20419;-60
2023/07/30 09:20:00;;;;;;;10.97;3.67;;;;;;;;;;5033743;28;20838;-60
2023/07/30 09:22:28;;;;;;;10.73;3.50;;;;;;;;;;5033021;28;20445;-61
2023/07/30 09:24:56;;;;;;;10.18;3.78;;;;;;;;;;5033872;28;20422;-60
2023/07/30 09:27:25;;;;;;;10.20;3.30;;;;;;;;;;5030791;28;20430;-60
2023/07/30 09:29:53;;;;;;;11.73;3.40;;;;;;;;;;5028854;28;20438;-64
2023/07/30 09:32:20;;;;;;;11.65;3.25;;;;;;;;;;5033584;28;20513;-60
2023/07/30 09:34:47;;;;;;;9.75;3.25;;;;;;;;;;5031830;28;20480;-60
2023/07/30 09:37:15;;;;;;;12.25;3.10;;;;;;;;;;5034712;28;20502;-59
2023/07/30 09:39:43;;;;;;;10.52;3.15;;;;;;;;;;5024411;28;20842;-58
2023/07/30 09:42:10;;;;;;;11.03;3.17;;;;;;;;;;5038063;28;20416;-58
2023/07/30 09:44:39;;;;;;;11.00;3.05;;;;;;;;;;5032508;28;20472;-59
2023/07/30 09:47:10;;;;;;;10.93;3.60;;;;;;;;;;5041417;28;20450;-58
2023/07/30 09:49:37;;;;;;;9.35;3.10;;;;;;;;;;5046833;28;20417;-58
2023/07/30 09:52:04;;;;;;;13.50;3.00;;;;;;;;;;5043199;28;20419;-58
2023/07/30 09:54:32;;;;;;;10.30;2.72;;;;;;;;;;5042702;28;20417;-58
2023/07/30 09:57:00;;;;;;;11.65;2.50;;;;;;;;;;5040606;28;20733;-57
2023/07/30 09:59:28;;;;;;;7.05;2.30;;;;;;;;;;5039282;28;20478;-57
2023/07/30 10:01:56;;;;;;;8.02;2.50;;;;;;;;;;5038407;28;20415;-57
2023/07/30 10:04:24;;;;;;;11.30;2.63;;;;;;;;;;5041633;28;20421;-58
2023/07/30 10:06:53;;;;;;;7.28;2.35;;;;;;;;;;5044506;28;20903;-58
2023/07/30 10:09:21;;;;;;;11.10;2.58;;;;;;;;;;5039924;28;20479;-57
2023/07/30 10:11:50;;;;;;;14.25;2.88;;;;;;;;;;5038238;28;20427;-57
2023/07/30 10:14:18;;;;;;;8.45;2.53;;;;;;;;;;5045734;28;20422;-58
2023/07/30 10:16:51;;;;;;;8.15;2.30;;;;;;;;;;5043719;28;20411;-58
2023/07/30 10:19:18;;;;;;;7.95;1.98;;;;;;;;;;5032871;28;20497;-59
2023/07/30 10:21:45;;;;;;;11.63;2.58;;;;;;;;;;5040363;28;20793;-59
2023/07/30 10:24:12;;;;;;;7.63;2.10;;;;;;;;;;5041294;28;20427;-57
2023/07/30 10:26:39;;;;;;;8.23;2.23;;;;;;;;;;5037963;28;20430;-59
2023/07/30 10:29:16;;;;;;;6.90;2.10;;;;;;;;;;5041839;28;20413;-57
2023/07/30 10:31:45;;;;;;;4.72;2.00;;;;;;;;;;5045285;28;20915;-57
2023/07/30 10:34:12;;;;;;;6.68;1.90;;;;;;;;;;5044913;28;20469;-59
2023/07/30 10:36:43;;;;;;;7.43;1.90;;;;;;;;;;5035851;28;20463;-59
2023/07/30 10:39:14;;;;;;;8.43;2.15;;;;;;;;;;5045658;28;20415;-59
2023/07/30 10:41:41;;;;;;;6.82;1.73;;;;;;;;;;5044079;28;20424;-56
2023/07/30 10:44:08;;;;;;;5.80;1.83;;;;;;;;;;5044433;28;20900;-58
2023/07/30 10:46:35;;;;;;;7.35;2.08;;;;;;;;;;5040368;28;20483;-58
2023/07/30 10:49:06;;;;;;;6.50;2.03;;;;;;;;;;5033270;28;20767;-56
2023/07/30 10:51:33;;;;;;;8.80;2.33;;;;;;;;;;5032118;28;20419;-56
2023/07/30 10:54:00;;;;;;;5.60;1.50;;;;;;;;;;5037234;28;20764;-58
2023/07/30 10:56:27;;;;;;;5.10;1.60;;;;;;;;;;5035674;28;20415;-53
2023/07/30 10:58:55;;;;;;;7.50;2.20;;;;;;;;;;5039646;28;20960;-58
2023/07/30 11:01:22;;;;;;;6.45;1.73;;;;;;;;;;5036910;28;20419;-58
2023/07/30 11:03:50;;;;;;;5.37;1.70;;;;;;;;;;5040778;28;20421;-59
2023/07/30 11:06:23;;;;;;;7.63;2.00;;;;;;;;;;5037245;28;20405;-58
2023/07/30 11:08:50;;;;;;;4.35;1.67;;;;;;;;;;5043962;28;20955;-59
2023/07/30 11:11:18;;;;;;;6.90;1.90;;;;;;;;;;5043113;28;20473;-59
2023/07/30 11:13:46;;;;;;;6.60;1.77;;;;;;;;;;5042404;28;20430;-60
2023/07/30 11:16:13;;;;;;;6.70;1.88;;;;;;;;;;5035900;28;20419;-58
2023/07/30 11:18:41;;;;;;;6.80;1.73;;;;;;;;;;5041740;28;20422;-59
2023/07/30 11:21:08;;;;;;;8.55;1.90;;;;;;;;;;5040455;28;20418;-58
2023/07/30 11:23:37;;;;;;;7.20;2.03;;;;;;;;;;5044211;28;20416;-58
2023/07/30 11:26:05;;;;;;;9.88;2.00;;;;;;;;;;5048761;28;20418;-59
2023/07/30 11:28:33;;;;;;;10.93;2.05;;;;;;;;;;5041822;28;20422;-56
2023/07/30 11:31:00;;;;;;;8.88;2.00;;;;;;;;;;5039654;28;20937;-58
2023/07/30 11:33:28;;;;;;;7.97;1.92;;;;;;;;;;5034629;28;20579;-58
2023/07/30 11:35:55;;;;;;;7.45;1.90;;;;;;;;;;5038451;28;20477;-58
2023/07/30 11:38:23;;;;;;;7.03;1.83;;;;;;;;;;5039581;28;20957;-58
2023/07/30 11:40:51;;;;;;;6.93;2.00;;;;;;;;;;5041313;28;20419;-59
2023/07/30 11:43:18;;;;;;;6.80;2.05;;;;;;;;;;5038263;28;20411;-56
2023/07/30 11:45:46;;;;;;;5.75;1.85;;;;;;;;;;5041559;28;20425;-56
2023/07/30 11:48:13;;;;;;;8.85;2.10;;;;;;;;;;5038989;28;20835;-58
2023/07/30 11:50:47;;;;;;;8.47;2.23;;;;;;;;;;5037223;28;20462;-58
2023/07/30 11:53:14;;;;;;;5.57;1.60;;;;;;;;;;5039259;28;20411;-58
2023/07/30 11:55:42;;;;;;;9.00;1.90;;;;;;;;;;5041281;28;20413;-57
2023/07/30 11:58:11;;;;;;;8.20;1.80;;;;;;;;;;5038079;28;20876;-59
2023/07/30 12:00:38;;;;;;;5.88;1.60;;;;;;;;;;5032974;28;20484;-59
2023/07/30 12:03:06;;;;;;;7.65;1.40;;;;;;;;;;5031560;28;20418;-59
2023/07/30 12:05:34;;;;;;;6.53;1.65;;;;;;;;;;5029539;28;20892;-59
2023/07/30 12:08:03;;;;;;;8.23;1.60;;;;;;;;;;5033859;28;20449;-57
2023/07/30 12:10:42;;;;;;;6.80;1.60;;;;;;;;;;5035905;28;20426;-57
2023/07/30 12:13:13;;;;;;;5.50;1.43;;;;;;;;;;5044613;28;20415;-58
2023/07/30 12:15:41;;;;;;;6.38;1.58;;;;;;;;;;5036415;28;20405;-58
2023/07/30 12:18:08;;;;;;;7.13;1.95;;;;;;;;;;5038773;28;20415;-57
2023/07/30 12:20:35;;;;;;;6.50;1.40;;;;;;;;;;5036879;28;20445;-59
2023/07/30 12:23:02;;;;;;;4.43;1.40;;;;;;;;;;5037957;28;20419;-58
2023/07/30 12:25:29;;;;;;;4.35;1.48;;;;;;;;;;5030732;28;20421;-58
2023/07/30 12:27:56;;;;;;;5.88;1.20;;;;;;;;;;5029865;28;20427;-58
2023/07/30 12:30:26;;;;;;;6.32;1.30;;;;;;;;;;5036169;28;20913;-58
2023/07/30 12:32:53;;;;;;;5.47;1.20;;;;;;;;;;5035459;28;20461;-59
2023/07/30 12:35:20;;;;;;;5.70;1.60;;;;;;;;;;5039087;28;20413;-57
2023/07/30 12:37:47;;;;;;;6.67;1.53;;;;;;;;;;5026867;28;20820;-58
2023/07/30 12:40:14;;;;;;;7.65;1.70;;;;;;;;;;5038545;28;20479;-61
2023/07/30 12:42:41;;;;;;;5.28;1.40;;;;;;;;;;5043926;28;20834;-57
2023/07/30 12:45:08;;;;;;;6.88;1.63;;;;;;;;;;5039238;28;20796;-55
2023/07/30 12:47:37;;;;;;;4.60;1.40;;;;;;;;;;5039452;28;20425;-56
2023/07/30 12:50:04;;;;;;;5.53;1.27;;;;;;;;;;5037387;28;20418;-58
2023/07/30 12:52:32;;;;;;;5.25;1.40;;;;;;;;;;5035873;28;20421;-57
2023/07/30 12:54:59;;;;;;;5.47;1.25;;;;;;;;;;5037723;28;20901;-58
2023/07/30 12:57:26;;;;;;;5.47;1.40;;;;;;;;;;5040187;28;20552;-58
2023/07/30 12:59:53;;;;;;;5.32;1.15;;;;;;;;;;5038696;28;20528;-57
2023/07/30 13:02:20;;;;;;;6.72;1.05;;;;;;;;;;5039176;28;20472;-57
2023/07/30 13:04:48;;;;;;;3.67;0.90;;;;;;;;;;5038693;28;20419;-56
2023/07/30 13:07:15;;;;;;;3.58;0.93;;;;;;;;;;5030104;28;20426;-57
2023/07/30 13:09:42;;;;;;;5.13;1.20;;;;;;;;;;5036016;28;20448;-56
2023/07/30 13:12:10;;;;;;;3.70;1.10;;;;;;;;;;5040439;28;20427;-56
2023/07/30 13:14:36;;;;;;;3.42;0.90;;;;;;;;;;5034326;28;20465;-58
2023/07/30 13:17:04;;;;;;;3.97;1.00;;;;;;;;;;5035530;28;20423;-58
2023/07/30 13:19:32;;;;;;;2.90;0.85;;;;;;;;;;5036785;28;20477;-58
2023/07/30 13:22:00;;;;;;;4.72;0.77;;;;;;;;;;5035939;28;20441;-59
2023/07/30 13:24:29;;;;;;;3.83;1.15;;;;;;;;;;5033637;28;20952;-59
2023/07/30 13:26:56;;;;;;;3.58;0.90;;;;;;;;;;5035773;28;20773;-58
2023/07/30 13:29:23;;;;;;;5.00;1.20;;;;;;;;;;5037556;28;20418;-59
2023/07/30 13:31:50;;;;;;;4.28;1.27;;;;;;;;;;5038450;28;20477;-60
2023/07/30 13:34:17;;;;;;;5.90;1.17;;;;;;;;;;5036357;28;20762;-59
2023/07/30 13:36:44;;;;;;;6.80;1.40;;;;;;;;;;5035944;28;20866;-59
2023/07/30 13:39:12;;;;;;;4.23;1.10;;;;;;;;;;5037933;28;20475;-57
2023/07/30 13:41:40;;;;;;;3.70;1.25;;;;;;;;;;5039197;28;20471;-59
2023/07/30 13:44:07;;;;;;;2.80;1.13;;;;;;;;;;5034212;28;20417;-58
2023/07/30 13:46:34;;;;;;;9.43;1.60;;;;;;;;;;5036159;28;20429;-59
2023/07/30 13:49:01;;;;;;;6.35;1.17;;;;;;;;;;5037065;28;20429;-57
2023/07/30 13:51:31;;;;;;;3.85;1.20;;;;;;;;;;5034985;28;20423;-59
2023/07/30 13:53:59;;;;;;;4.65;1.35;;;;;;;;;;5027595;28;20411;-59
2023/07/30 13:56:27;;;;;;;5.80;1.45;;;;;;;;;;5035144;28;20413;-60
2023/07/30 13:58:54;;;;;;;5.78;1.38;;;;;;;;;;5033894;28;20463;-60
2023/07/30 14:01:21;;;;;;;5.27;1.10;;;;;;;;;;5039650;28;20417;-59
2023/07/30 14:03:48;;;;;;;4.85;1.30;;;;;;;;;;5037531;28;20791;-60
2023/07/30 14:06:15;;;;;;;4.07;1.20;;;;;;;;;;5038293;28;20423;-61
2023/07/30 14:08:42;;;;;;;4.68;1.23;;;;;;;;;;5037570;28;20428;-63
2023/07/30 14:11:09;;;;;;;4.10;1.20;;;;;;;;;;5039974;28;20414;-63
2023/07/30 14:13:38;;;;;;;6.53;1.50;;;;;;;;;;5044319;28;20417;-62
2023/07/30 14:16:05;;;;;;;4.38;1.30;;;;;;;;;;5037070;28;20422;-61
2023/07/30 14:18:32;;;;;;;3.10;0.97;;;;;;;;;;5037393;28;20476;-63
2023/07/30 14:20:59;;;;;;;6.15;1.30;;;;;;;;;;5037747;28;20434;-64
2023/07/30 14:23:26;;;;;;;5.38;1.20;;;;;;;;;;5037319;28;20481;-61
2023/07/30 14:25:53;;;;;;;5.15;1.50;;;;;;;;;;5037107;28;21108;-61
2023/07/30 14:28:20;;;;;;;5.43;1.52;;;;;;;;;;5036831;28;20430;-61
2023/07/30 14:30:48;;;;;;;4.53;1.38;;;;;;;;;;5035622;28;20914;-61
2023/07/30 14:33:15;;;;;;;8.20;1.40;;;;;;;;;;5027220;28;20517;-59
2023/07/30 14:35:42;;;;;;;4.73;1.50;;;;;;;;;;5037231;28;20612;-64
2023/07/30 14:38:09;;;;;;;5.38;1.52;;;;;;;;;;5038935;28;20413;-65